Terminal Aerodrome Forecast
Issued by NWS

Home | Current Version | Previous Version | Text Only | Print | Product List | Glossary On
Versions: 1 2 3 4 5 6 7 8 9 10 11 12 13 14 15 16 17 18 19 20 21 22 23 24 25 26 27 28 29 30 31 32 33 34 35 36 37 38 39 40 41 42
000
FTUS43 KDMX 141443 AAC
TAFOTM
TAF AMD
KOTM 141443Z 1415/1512 14014KT 2SM -SN SCT015 OVC025
      TEMPO 1415/1417 1/2SM SN BKN015
     FM141800 14012G18KT 5SM -SN SCT015 OVC035
     FM142100 13009KT 5SM BR OVC028
     FM150200 15006KT 3SM BR BKN018=

USA.gov is the U.S. government's official web portal to all federal, state and local government web resources and services.